sensor_id;sensor_type;location;lat;lon;timestamp;temperature;humidity
79439;DHT22;68889;48.232;10.110;2024-02-28T00:00:05;7.60;95.30
79439;DHT22;68889;48.232;10.110;2024-02-28T00:02:34;7.60;95.30
79439;DHT22;68889;48.232;10.110;2024-02-28T00:05:02;7.60;95.30
79439;DHT22;68889;48.232;10.110;2024-02-28T00:07:27;7.60;95.40
79439;DHT22;68889;48.232;10.110;2024-02-28T00:09:54;7.50;95.40
79439;DHT22;68889;48.232;10.110;2024-02-28T00:12:23;7.50;95.30
79439;DHT22;68889;48.232;10.110;2024-02-28T00:14:51;7.50;95.40
79439;DHT22;68889;48.232;10.110;2024-02-28T00:17:18;7.50;95.50
79439;DHT22;68889;48.232;10.110;2024-02-28T00:19:43;7.50;95.50
79439;DHT22;68889;48.232;10.110;2024-02-28T00:22:10;7.50;95.60
79439;DHT22;68889;48.232;10.110;2024-02-28T00:24:35;7.50;95.50
79439;DHT22;68889;48.232;10.110;2024-02-28T00:27:02;7.50;95.60
79439;DHT22;68889;48.232;10.110;2024-02-28T00:29:27;7.40;95.70
79439;DHT22;68889;48.232;10.110;2024-02-28T00:31:53;7.40;95.90
79439;DHT22;68889;48.232;10.110;2024-02-28T00:34:19;7.40;95.90
79439;DHT22;68889;48.232;10.110;2024-02-28T00:36:51;7.30;95.90
79439;DHT22;68889;48.232;10.110;2024-02-28T00:39:16;7.30;96.00
79439;DHT22;68889;48.232;10.110;2024-02-28T00:41:43;7.30;95.90
79439;DHT22;68889;48.232;10.110;2024-02-28T00:44:08;7.30;96.00
79439;DHT22;68889;48.232;10.110;2024-02-28T00:46:39;7.30;96.10
79439;DHT22;68889;48.232;10.110;2024-02-28T00:49:05;7.30;96.10
79439;DHT22;68889;48.232;10.110;2024-02-28T00:51:34;7.30;96.10
79439;DHT22;68889;48.232;10.110;2024-02-28T00:54:02;7.30;96.10
79439;DHT22;68889;48.232;10.110;2024-02-28T00:56:30;7.20;96.40
79439;DHT22;68889;48.232;10.110;2024-02-28T00:58:56;7.20;96.40
79439;DHT22;68889;48.232;10.110;2024-02-28T01:01:21;7.20;96.50
79439;DHT22;68889;48.232;10.110;2024-02-28T01:03:47;7.20;96.40
79439;DHT22;68889;48.232;10.110;2024-02-28T01:08:48;7.20;96.40
79439;DHT22;68889;48.232;10.110;2024-02-28T01:11:19;7.20;96.50
79439;DHT22;68889;48.232;10.110;2024-02-28T01:13:49;7.20;96.50
79439;DHT22;68889;48.232;10.110;2024-02-28T01:16:21;7.10;96.60
79439;DHT22;68889;48.232;10.110;2024-02-28T01:18:51;7.10;96.60
79439;DHT22;68889;48.232;10.110;2024-02-28T01:21:17;7.10;96.70
79439;DHT22;68889;48.232;10.110;2024-02-28T01:23:43;7.10;96.60
79439;DHT22;68889;48.232;10.110;2024-02-28T01:26:17;7.10;96.60
79439;DHT22;68889;48.232;10.110;2024-02-28T01:28:54;7.10;96.70
79439;DHT22;68889;48.232;10.110;2024-02-28T01:31:20;7.10;96.70
79439;DHT22;68889;48.232;10.110;2024-02-28T01:33:59;7.10;96.60
79439;DHT22;68889;48.232;10.110;2024-02-28T01:36:30;7.10;96.60
79439;DHT22;68889;48.232;10.110;2024-02-28T01:38:56;7.10;96.40
79439;DHT22;68889;48.232;10.110;2024-02-28T01:41:26;7.10;96.50
79439;DHT22;68889;48.232;10.110;2024-02-28T01:43:55;7.10;96.70
79439;DHT22;68889;48.232;10.110;2024-02-28T01:46:32;7.10;96.70
79439;DHT22;68889;48.232;10.110;2024-02-28T01:48:58;7.00;96.70
79439;DHT22;68889;48.232;10.110;2024-02-28T01:51:26;7.00;96.70
79439;DHT22;68889;48.232;10.110;2024-02-28T01:53:55;7.00;96.70
79439;DHT22;68889;48.232;10.110;2024-02-28T01:56:36;7.00;96.80
79439;DHT22;68889;48.232;10.110;2024-02-28T01:59:02;7.00;96.90
79439;DHT22;68889;48.232;10.110;2024-02-28T02:01:38;7.00;96.70
79439;DHT22;68889;48.232;10.110;2024-02-28T02:04:06;7.00;96.60
79439;DHT22;68889;48.232;10.110;2024-02-28T02:06:36;7.00;96.50
79439;DHT22;68889;48.232;10.110;2024-02-28T02:09:03;7.00;96.80
79439;DHT22;68889;48.232;10.110;2024-02-28T02:11:56;7.00;96.70
79439;DHT22;68889;48.232;10.110;2024-02-28T02:14:22;6.90;97.00
79439;DHT22;68889;48.232;10.110;2024-02-28T02:16:52;6.90;97.00
79439;DHT22;68889;48.232;10.110;2024-02-28T02:19:17;6.90;97.20
79439;DHT22;68889;48.232;10.110;2024-02-28T02:22:03;6.90;97.10
79439;DHT22;68889;48.232;10.110;2024-02-28T02:24:34;6.90;97.20
79439;DHT22;68889;48.232;10.110;2024-02-28T02:27:05;6.90;97.00
79439;DHT22;68889;48.232;10.110;2024-02-28T02:29:36;6.90;97.10
79439;DHT22;68889;48.232;10.110;2024-02-28T02:32:07;6.90;97.10
79439;DHT22;68889;48.232;10.110;2024-02-28T02:34:33;6.90;97.10
79439;DHT22;68889;48.232;10.110;2024-02-28T02:37:03;6.80;97.10
79439;DHT22;68889;48.232;10.110;2024-02-28T02:39:34;6.90;97.20
79439;DHT22;68889;48.232;10.110;2024-02-28T02:42:02;6.90;97.10
79439;DHT22;68889;48.232;10.110;2024-02-28T02:44:34;6.90;97.10
79439;DHT22;68889;48.232;10.110;2024-02-28T02:47:10;6.90;97.10
79439;DHT22;68889;48.232;10.110;2024-02-28T02:49:49;6.90;97.10
79439;DHT22;68889;48.232;10.110;2024-02-28T02:52:31;6.90;97.10
79439;DHT22;68889;48.232;10.110;2024-02-28T02:54:59;6.90;97.20
79439;DHT22;68889;48.232;10.110;2024-02-28T02:57:33;6.90;97.20
79439;DHT22;68889;48.232;10.110;2024-02-28T03:00:00;6.90;97.30
79439;DHT22;68889;48.232;10.110;2024-02-28T03:02:49;6.90;97.20
79439;DHT22;68889;48.232;10.110;2024-02-28T03:10:25;6.90;97.20
79439;DHT22;68889;48.232;10.110;2024-02-28T03:13:00;6.90;97.40
79439;DHT22;68889;48.232;10.110;2024-02-28T03:15:35;6.90;97.30
79439;DHT22;68889;48.232;10.110;2024-02-28T03:18:02;6.90;97.20
79439;DHT22;68889;48.232;10.110;2024-02-28T03:20:30;6.90;97.40
79439;DHT22;68889;48.232;10.110;2024-02-28T03:22:57;6.90;97.30
79439;DHT22;68889;48.232;10.110;2024-02-28T03:25:37;6.90;97.20
79439;DHT22;68889;48.232;10.110;2024-02-28T03:28:04;6.90;97.30
79439;DHT22;68889;48.232;10.110;2024-02-28T03:30:39;6.80;97.50
79439;DHT22;68889;48.232;10.110;2024-02-28T03:33:11;6.80;97.80
79439;DHT22;68889;48.232;10.110;2024-02-28T03:35:36;6.70;97.80
79439;DHT22;68889;48.232;10.110;2024-02-28T03:38:02;6.70;98.00
79439;DHT22;68889;48.232;10.110;2024-02-28T03:40:29;6.70;98.10
79439;DHT22;68889;48.232;10.110;2024-02-28T03:42:55;6.70;98.10
79439;DHT22;68889;48.232;10.110;2024-02-28T03:45:22;6.70;98.00
79439;DHT22;68889;48.232;10.110;2024-02-28T03:47:48;6.70;98.00
79439;DHT22;68889;48.232;10.110;2024-02-28T03:50:21;6.70;98.20
79439;DHT22;68889;48.232;10.110;2024-02-28T03:52:49;6.70;98.10
79439;DHT22;68889;48.232;10.110;2024-02-28T03:55:21;6.70;98.10
79439;DHT22;68889;48.232;10.110;2024-02-28T03:57:51;6.70;98.30
79439;DHT22;68889;48.232;10.110;2024-02-28T04:00:30;6.60;98.50
79439;DHT22;68889;48.232;10.110;2024-02-28T04:02:56;6.60;98.50
79439;DHT22;68889;48.232;10.110;2024-02-28T04:05:22;6.70;98.20
79439;DHT22;68889;48.232;10.110;2024-02-28T04:07:48;6.70;98.20
79439;DHT22;68889;48.232;10.110;2024-02-28T04:10:14;6.70;98.30
79439;DHT22;68889;48.232;10.110;2024-02-28T04:12:43;6.70;98.20
79439;DHT22;68889;48.232;10.110;2024-02-28T04:15:12;6.80;98.00
79439;DHT22;68889;48.232;10.110;2024-02-28T04:17:41;6.80;98.00
79439;DHT22;68889;48.232;10.110;2024-02-28T04:20:20;6.80;98.00
79439;DHT22;68889;48.232;10.110;2024-02-28T04:22:54;6.80;98.00
79439;DHT22;68889;48.232;10.110;2024-02-28T04:25:22;6.80;97.80
79439;DHT22;68889;48.232;10.110;2024-02-28T04:27:49;6.80;97.80
79439;DHT22;68889;48.232;10.110;2024-02-28T04:30:16;6.80;97.90
79439;DHT22;68889;48.232;10.110;2024-02-28T04:32:46;6.80;98.00
79439;DHT22;68889;48.232;10.110;2024-02-28T04:35:24;6.80;97.80
79439;DHT22;68889;48.232;10.110;2024-02-28T04:37:51;6.80;98.10
79439;DHT22;68889;48.232;10.110;2024-02-28T04:40:17;6.80;98.10
79439;DHT22;68889;48.232;10.110;2024-02-28T04:42:46;6.80;98.00
79439;DHT22;68889;48.232;10.110;2024-02-28T04:45:11;6.70;98.10
79439;DHT22;68889;48.232;10.110;2024-02-28T04:47:39;6.70;98.30
79439;DHT22;68889;48.232;10.110;2024-02-28T04:50:05;6.70;98.50
79439;DHT22;68889;48.232;10.110;2024-02-28T04:52:32;6.80;98.40
79439;DHT22;68889;48.232;10.110;2024-02-28T04:55:04;6.80;98.20
79439;DHT22;68889;48.232;10.110;2024-02-28T04:57:31;6.80;98.30
79439;DHT22;68889;48.232;10.110;2024-02-28T04:59:58;6.80;98.30
79439;DHT22;68889;48.232;10.110;2024-02-28T05:02:25;6.70;98.60
79439;DHT22;68889;48.232;10.110;2024-02-28T05:04:51;6.70;98.50
79439;DHT22;68889;48.232;10.110;2024-02-28T05:07:18;6.70;98.50
79439;DHT22;68889;48.232;10.110;2024-02-28T05:09:45;6.70;98.80
79439;DHT22;68889;48.232;10.110;2024-02-28T05:12:11;6.70;98.80
79439;DHT22;68889;48.232;10.110;2024-02-28T05:14:39;6.60;98.60
79439;DHT22;68889;48.232;10.110;2024-02-28T05:17:05;6.60;98.60
79439;DHT22;68889;48.232;10.110;2024-02-28T05:19:31;6.60;98.80
79439;DHT22;68889;48.232;10.110;2024-02-28T05:21:56;6.60;98.80
79439;DHT22;68889;48.232;10.110;2024-02-28T05:24:22;6.60;98.70
79439;DHT22;68889;48.232;10.110;2024-02-28T05:26:47;6.50;98.80
79439;DHT22;68889;48.232;10.110;2024-02-28T05:29:13;6.50;98.70
79439;DHT22;68889;48.232;10.110;2024-02-28T05:31:38;6.50;98.60
79439;DHT22;68889;48.232;10.110;2024-02-28T05:34:04;6.50;98.50
79439;DHT22;68889;48.232;10.110;2024-02-28T05:36:30;6.60;98.80
79439;DHT22;68889;48.232;10.110;2024-02-28T05:38:57;6.60;98.60
79439;DHT22;68889;48.232;10.110;2024-02-28T05:41:25;6.60;98.50
79439;DHT22;68889;48.232;10.110;2024-02-28T05:43:51;6.60;98.20
79439;DHT22;68889;48.232;10.110;2024-02-28T05:46:18;6.60;98.20
79439;DHT22;68889;48.232;10.110;2024-02-28T05:48:46;6.50;98.40
79439;DHT22;68889;48.232;10.110;2024-02-28T05:51:13;6.50;98.40
79439;DHT22;68889;48.232;10.110;2024-02-28T05:53:39;6.50;98.30
79439;DHT22;68889;48.232;10.110;2024-02-28T05:56:08;6.50;98.50
79439;DHT22;68889;48.232;10.110;2024-02-28T05:58:44;6.50;98.40
79439;DHT22;68889;48.232;10.110;2024-02-28T06:01:16;6.50;98.40
79439;DHT22;68889;48.232;10.110;2024-02-28T06:03:48;6.60;98.30
79439;DHT22;68889;48.232;10.110;2024-02-28T06:06:15;6.50;98.30
79439;DHT22;68889;48.232;10.110;2024-02-28T06:08:41;6.50;98.50
79439;DHT22;68889;48.232;10.110;2024-02-28T06:11:08;6.50;98.50
79439;DHT22;68889;48.232;10.110;2024-02-28T06:13:33;6.50;98.60
79439;DHT22;68889;48.232;10.110;2024-02-28T06:16:04;6.50;98.30
79439;DHT22;68889;48.232;10.110;2024-02-28T06:18:37;6.50;98.40
79439;DHT22;68889;48.232;10.110;2024-02-28T06:21:04;6.50;98.40
79439;DHT22;68889;48.232;10.110;2024-02-28T06:23:46;6.50;98.30
79439;DHT22;68889;48.232;10.110;2024-02-28T06:26:17;6.50;98.20
79439;DHT22;68889;48.232;10.110;2024-02-28T06:28:46;6.40;98.00
79439;DHT22;68889;48.232;10.110;2024-02-28T06:31:17;6.40;98.00
79439;DHT22;68889;48.232;10.110;2024-02-28T06:33:43;6.40;97.70
79439;DHT22;68889;48.232;10.110;2024-02-28T06:36:16;6.40;97.90
79439;DHT22;68889;48.232;10.110;2024-02-28T06:38:46;6.40;97.60
79439;DHT22;68889;48.232;10.110;2024-02-28T06:41:25;6.40;97.30
79439;DHT22;68889;48.232;10.110;2024-02-28T06:43:50;6.30;97.50
79439;DHT22;68889;48.232;10.110;2024-02-28T06:46:32;6.30;97.70
79439;DHT22;68889;48.232;10.110;2024-02-28T06:49:02;6.30;97.50
79439;DHT22;68889;48.232;10.110;2024-02-28T06:51:35;6.30;97.30
79439;DHT22;68889;48.232;10.110;2024-02-28T06:54:01;6.40;97.40
79439;DHT22;68889;48.232;10.110;2024-02-28T06:56:30;6.40;97.40
79439;DHT22;68889;48.232;10.110;2024-02-28T06:58:56;6.50;96.90
79439;DHT22;68889;48.232;10.110;2024-02-28T07:01:24;6.40;96.80
79439;DHT22;68889;48.232;10.110;2024-02-28T07:03:50;6.50;96.80
79439;DHT22;68889;48.232;10.110;2024-02-28T07:06:15;6.50;96.40
79439;DHT22;68889;48.232;10.110;2024-02-28T07:08:41;6.60;96.30
79439;DHT22;68889;48.232;10.110;2024-02-28T07:11:17;6.60;96.30
79439;DHT22;68889;48.232;10.110;2024-02-28T07:13:42;6.60;96.20
79439;DHT22;68889;48.232;10.110;2024-02-28T07:16:08;6.70;96.10
79439;DHT22;68889;48.232;10.110;2024-02-28T07:18:33;6.70;95.90
79439;DHT22;68889;48.232;10.110;2024-02-28T07:20:59;6.80;95.80
79439;DHT22;68889;48.232;10.110;2024-02-28T07:23:26;6.90;95.70
79439;DHT22;68889;48.232;10.110;2024-02-28T07:25:52;7.00;95.50
79439;DHT22;68889;48.232;10.110;2024-02-28T07:28:19;7.00;94.60
79439;DHT22;68889;48.232;10.110;2024-02-28T07:30:45;7.00;94.60
79439;DHT22;68889;48.232;10.110;2024-02-28T07:33:11;7.00;94.60
79439;DHT22;68889;48.232;10.110;2024-02-28T07:35:47;7.10;94.40
79439;DHT22;68889;48.232;10.110;2024-02-28T07:38:14;7.10;94.50
79439;DHT22;68889;48.232;10.110;2024-02-28T07:40:40;7.20;93.60
79439;DHT22;68889;48.232;10.110;2024-02-28T07:43:06;7.20;94.00
79439;DHT22;68889;48.232;10.110;2024-02-28T07:45:31;7.30;93.30
79439;DHT22;68889;48.232;10.110;2024-02-28T07:47:57;7.30;93.30
79439;DHT22;68889;48.232;10.110;2024-02-28T07:50:23;7.30;93.30
79439;DHT22;68889;48.232;10.110;2024-02-28T07:52:49;7.30;93.20
79439;DHT22;68889;48.232;10.110;2024-02-28T07:55:15;7.40;92.80
79439;DHT22;68889;48.232;10.110;2024-02-28T07:57:41;7.40;92.80
79439;DHT22;68889;48.232;10.110;2024-02-28T08:00:08;7.50;92.90
79439;DHT22;68889;48.232;10.110;2024-02-28T08:02:37;7.50;92.70
79439;DHT22;68889;48.232;10.110;2024-02-28T08:05:04;7.50;92.10
79439;DHT22;68889;48.232;10.110;2024-02-28T08:07:32;7.50;92.40
79439;DHT22;68889;48.232;10.110;2024-02-28T08:09:58;7.60;92.40
79439;DHT22;68889;48.232;10.110;2024-02-28T08:12:24;7.70;92.40
79439;DHT22;68889;48.232;10.110;2024-02-28T08:14:50;7.70;92.20
79439;DHT22;68889;48.232;10.110;2024-02-28T08:17:16;7.70;91.90
79439;DHT22;68889;48.232;10.110;2024-02-28T08:19:43;7.60;92.00
79439;DHT22;68889;48.232;10.110;2024-02-28T08:22:11;7.60;92.20
79439;DHT22;68889;48.232;10.110;2024-02-28T08:24:39;7.50;92.10
79439;DHT22;68889;48.232;10.110;2024-02-28T08:27:06;7.50;92.30
79439;DHT22;68889;48.232;10.110;2024-02-28T08:29:32;7.50;92.50
79439;DHT22;68889;48.232;10.110;2024-02-28T08:32:00;7.50;92.20
79439;DHT22;68889;48.232;10.110;2024-02-28T08:34:26;7.50;91.90
79439;DHT22;68889;48.232;10.110;2024-02-28T08:36:52;7.50;91.80
79439;DHT22;68889;48.232;10.110;2024-02-28T08:39:17;7.50;92.10
79439;DHT22;68889;48.232;10.110;2024-02-28T08:41:43;7.60;92.00
79439;DHT22;68889;48.232;10.110;2024-02-28T08:44:09;7.50;92.00
79439;DHT22;68889;48.232;10.110;2024-02-28T08:46:35;7.50;91.90
79439;DHT22;68889;48.232;10.110;2024-02-28T08:49:00;7.60;92.00
79439;DHT22;68889;48.232;10.110;2024-02-28T08:51:26;7.50;91.90
79439;DHT22;68889;48.232;10.110;2024-02-28T08:53:52;7.60;92.00
79439;DHT22;68889;48.232;10.110;2024-02-28T08:56:19;7.60;92.20
79439;DHT22;68889;48.232;10.110;2024-02-28T08:58:44;7.60;91.70
79439;DHT22;68889;48.232;10.110;2024-02-28T09:01:15;7.60;91.90
79439;DHT22;68889;48.232;10.110;2024-02-28T09:03:41;7.50;92.00
79439;DHT22;68889;48.232;10.110;2024-02-28T09:06:06;7.50;92.40
79439;DHT22;68889;48.232;10.110;2024-02-28T09:08:32;7.60;92.30
79439;DHT22;68889;48.232;10.110;2024-02-28T09:10:58;7.70;92.10
79439;DHT22;68889;48.232;10.110;2024-02-28T09:13:26;7.70;91.90
79439;DHT22;68889;48.232;10.110;2024-02-28T09:15:52;7.80;91.60
79439;DHT22;68889;48.232;10.110;2024-02-28T09:18:23;7.70;91.50
79439;DHT22;68889;48.232;10.110;2024-02-28T09:20:50;7.60;91.80
79439;DHT22;68889;48.232;10.110;2024-02-28T09:23:19;7.60;91.90
79439;DHT22;68889;48.232;10.110;2024-02-28T09:25:45;7.60;91.90
79439;DHT22;68889;48.232;10.110;2024-02-28T09:28:11;7.60;91.70
79439;DHT22;68889;48.232;10.110;2024-02-28T09:30:39;7.70;91.40
79439;DHT22;68889;48.232;10.110;2024-02-28T09:33:05;8.00;91.60
79439;DHT22;68889;48.232;10.110;2024-02-28T09:35:31;8.40;90.30
79439;DHT22;68889;48.232;10.110;2024-02-28T09:37:57;8.60;89.30
79439;DHT22;68889;48.232;10.110;2024-02-28T09:40:38;8.70;88.20
79439;DHT22;68889;48.232;10.110;2024-02-28T09:43:11;8.80;87.80
79439;DHT22;68889;48.232;10.110;2024-02-28T09:45:42;8.90;88.90
79439;DHT22;68889;48.232;10.110;2024-02-28T09:48:09;9.20;88.00
79439;DHT22;68889;48.232;10.110;2024-02-28T09:50:35;9.40;87.30
79439;DHT22;68889;48.232;10.110;2024-02-28T09:53:02;9.70;88.20
79439;DHT22;68889;48.232;10.110;2024-02-28T09:55:39;10.10;86.20
79439;DHT22;68889;48.232;10.110;2024-02-28T09:58:05;10.30;85.80
79439;DHT22;68889;48.232;10.110;2024-02-28T10:00:32;10.60;84.40
79439;DHT22;68889;48.232;10.110;2024-02-28T10:02:59;10.70;83.30
79439;DHT22;68889;48.232;10.110;2024-02-28T10:05:28;10.90;82.50
79439;DHT22;68889;48.232;10.110;2024-02-28T10:07:55;11.10;82.90
79439;DHT22;68889;48.232;10.110;2024-02-28T10:10:20;11.20;80.60
79439;DHT22;68889;48.232;10.110;2024-02-28T10:12:49;11.30;82.00
79439;DHT22;68889;48.232;10.110;2024-02-28T10:15:15;11.40;81.70
79439;DHT22;68889;48.232;10.110;2024-02-28T10:17:42;11.30;80.50
79439;DHT22;68889;48.232;10.110;2024-02-28T10:20:16;11.30;81.40
79439;DHT22;68889;48.232;10.110;2024-02-28T10:22:41;11.30;81.60
79439;DHT22;68889;48.232;10.110;2024-02-28T10:25:07;11.10;79.50
79439;DHT22;68889;48.232;10.110;2024-02-28T10:27:34;11.10;82.00
79439;DHT22;68889;48.232;10.110;2024-02-28T10:30:02;11.00;80.80
79439;DHT22;68889;48.232;10.110;2024-02-28T10:32:32;10.90;80.80
79439;DHT22;68889;48.232;10.110;2024-02-28T10:34:59;10.80;81.30
79439;DHT22;68889;48.232;10.110;2024-02-28T10:37:29;10.80;81.70
79439;DHT22;68889;48.232;10.110;2024-02-28T10:39:58;10.80;81.60
79439;DHT22;68889;48.232;10.110;2024-02-28T10:42:30;10.70;82.20
79439;DHT22;68889;48.232;10.110;2024-02-28T10:44:57;10.70;82.00
79439;DHT22;68889;48.232;10.110;2024-02-28T10:47:30;10.70;81.70
79439;DHT22;68889;48.232;10.110;2024-02-28T10:49:58;10.70;81.80
79439;DHT22;68889;48.232;10.110;2024-02-28T10:52:26;10.70;81.70
79439;DHT22;68889;48.232;10.110;2024-02-28T10:54:54;10.60;82.00
79439;DHT22;68889;48.232;10.110;2024-02-28T10:57:36;10.40;82.30
79439;DHT22;68889;48.232;10.110;2024-02-28T11:00:02;10.20;83.00
79439;DHT22;68889;48.232;10.110;2024-02-28T11:02:31;10.10;83.30
79439;DHT22;68889;48.232;10.110;2024-02-28T11:04:57;10.00;83.60
79439;DHT22;68889;48.232;10.110;2024-02-28T11:07:31;9.90;83.90
79439;DHT22;68889;48.232;10.110;2024-02-28T11:09:58;9.90;84.00
79439;DHT22;68889;48.232;10.110;2024-02-28T11:12:29;9.90;83.80
79439;DHT22;68889;48.232;10.110;2024-02-28T11:15:03;10.00;83.70
79439;DHT22;68889;48.232;10.110;2024-02-28T11:17:44;10.00;83.30
79439;DHT22;68889;48.232;10.110;2024-02-28T11:20:47;9.90;83.30
79439;DHT22;68889;48.232;10.110;2024-02-28T11:23:21;9.80;83.90
79439;DHT22;68889;48.232;10.110;2024-02-28T11:25:47;9.70;83.80
79439;DHT22;68889;48.232;10.110;2024-02-28T11:28:15;9.80;84.20
79439;DHT22;68889;48.232;10.110;2024-02-28T11:30:49;10.00;84.50
79439;DHT22;68889;48.232;10.110;2024-02-28T11:33:18;10.20;84.00
79439;DHT22;68889;48.232;10.110;2024-02-28T11:36:13;10.50;82.60
79439;DHT22;68889;48.232;10.110;2024-02-28T11:38:44;10.80;81.90
79439;DHT22;68889;48.232;10.110;2024-02-28T11:41:12;10.90;82.00
79439;DHT22;68889;48.232;10.110;2024-02-28T11:43:39;11.20;81.80
79439;DHT22;68889;48.232;10.110;2024-02-28T11:46:10;11.30;80.30
79439;DHT22;68889;48.232;10.110;2024-02-28T11:48:36;11.40;80.80
79439;DHT22;68889;48.232;10.110;2024-02-28T11:51:02;11.50;81.20
79439;DHT22;68889;48.232;10.110;2024-02-28T11:53:28;11.70;81.20
79439;DHT22;68889;48.232;10.110;2024-02-28T11:55:54;12.00;79.20
79439;DHT22;68889;48.232;10.110;2024-02-28T11:58:24;12.00;79.60
79439;DHT22;68889;48.232;10.110;2024-02-28T12:01:04;12.00;79.80
79439;DHT22;68889;48.232;10.110;2024-02-28T12:03:34;11.80;79.50
79439;DHT22;68889;48.232;10.110;2024-02-28T12:06:03;11.70;80.00
79439;DHT22;68889;48.232;10.110;2024-02-28T12:08:29;11.70;80.10
79439;DHT22;68889;48.232;10.110;2024-02-28T12:10:55;11.80;80.20
79439;DHT22;68889;48.232;10.110;2024-02-28T12:13:23;11.80;79.30
79439;DHT22;68889;48.232;10.110;2024-02-28T12:15:49;12.10;79.70
79439;DHT22;68889;48.232;10.110;2024-02-28T12:18:15;12.60;79.40
79439;DHT22;68889;48.232;10.110;2024-02-28T12:20:43;12.70;77.00
79439;DHT22;68889;48.232;10.110;2024-02-28T12:23:12;12.60;77.10
79439;DHT22;68889;48.232;10.110;2024-02-28T12:25:38;12.70;77.30
79439;DHT22;68889;48.232;10.110;2024-02-28T12:28:06;12.80;76.60
79439;DHT22;68889;48.232;10.110;2024-02-28T12:30:40;12.50;76.50
79439;DHT22;68889;48.232;10.110;2024-02-28T12:33:13;12.40;76.90
79439;DHT22;68889;48.232;10.110;2024-02-28T12:35:44;12.40;76.40
79439;DHT22;68889;48.232;10.110;2024-02-28T12:38:18;12.50;77.70
79439;DHT22;68889;48.232;10.110;2024-02-28T12:40:49;12.30;77.70
79439;DHT22;68889;48.232;10.110;2024-02-28T12:43:15;12.00;78.00
79439;DHT22;68889;48.232;10.110;2024-02-28T12:45:44;11.60;78.30
79439;DHT22;68889;48.232;10.110;2024-02-28T12:48:12;11.70;80.20
79439;DHT22;68889;48.232;10.110;2024-02-28T12:50:39;12.20;79.70
79439;DHT22;68889;48.232;10.110;2024-02-28T12:53:05;12.70;78.00
79439;DHT22;68889;48.232;10.110;2024-02-28T12:55:35;13.30;75.50
79439;DHT22;68889;48.232;10.110;2024-02-28T12:58:19;13.90;75.80
79439;DHT22;68889;48.232;10.110;2024-02-28T13:00:48;14.50;73.70
79439;DHT22;68889;48.232;10.110;2024-02-28T13:03:13;14.40;72.40
79439;DHT22;68889;48.232;10.110;2024-02-28T13:05:40;13.90;73.30
79439;DHT22;68889;48.232;10.110;2024-02-28T13:08:06;13.50;74.70
79439;DHT22;68889;48.232;10.110;2024-02-28T13:10:31;13.30;74.50
79439;DHT22;68889;48.232;10.110;2024-02-28T13:13:00;13.20;75.50
79439;DHT22;68889;48.232;10.110;2024-02-28T13:15:46;13.30;75.20
79439;DHT22;68889;48.232;10.110;2024-02-28T13:18:18;13.50;74.90
79439;DHT22;68889;48.232;10.110;2024-02-28T13:20:45;13.50;73.50
79439;DHT22;68889;48.232;10.110;2024-02-28T13:23:24;13.30;74.40
79439;DHT22;68889;48.232;10.110;2024-02-28T13:25:57;12.90;75.80
79439;DHT22;68889;48.232;10.110;2024-02-28T13:28:24;12.80;75.80
79439;DHT22;68889;48.232;10.110;2024-02-28T13:31:16;12.60;76.60
79439;DHT22;68889;48.232;10.110;2024-02-28T13:33:43;12.30;75.60
79439;DHT22;68889;48.232;10.110;2024-02-28T13:36:15;12.00;77.40
79439;DHT22;68889;48.232;10.110;2024-02-28T13:38:41;11.90;78.10
79439;DHT22;68889;48.232;10.110;2024-02-28T13:41:08;11.90;78.00
79439;DHT22;68889;48.232;10.110;2024-02-28T13:43:35;12.00;76.90
79439;DHT22;68889;48.232;10.110;2024-02-28T13:46:18;12.10;76.80
79439;DHT22;68889;48.232;10.110;2024-02-28T13:49:00;12.00;78.00
79439;DHT22;68889;48.232;10.110;2024-02-28T13:51:30;12.10;76.80
79439;DHT22;68889;48.232;10.110;2024-02-28T13:53:59;12.10;77.10
79439;DHT22;68889;48.232;10.110;2024-02-28T13:56:31;12.20;77.90
79439;DHT22;68889;48.232;10.110;2024-02-28T13:58:57;12.20;77.20
79439;DHT22;68889;48.232;10.110;2024-02-28T14:01:26;12.00;77.00
79439;DHT22;68889;48.232;10.110;2024-02-28T14:03:54;12.00;77.60
79439;DHT22;68889;48.232;10.110;2024-02-28T14:06:30;12.10;76.70
79439;DHT22;68889;48.232;10.110;2024-02-28T14:09:00;12.10;76.80
79439;DHT22;68889;48.232;10.110;2024-02-28T14:11:31;12.20;77.20
79439;DHT22;68889;48.232;10.110;2024-02-28T14:13:56;12.30;76.40
79439;DHT22;68889;48.232;10.110;2024-02-28T14:16:35;12.30;76.20
79439;DHT22;68889;48.232;10.110;2024-02-28T14:19:02;12.20;75.30
79439;DHT22;68889;48.232;10.110;2024-02-28T14:21:29;12.10;76.50
79439;DHT22;68889;48.232;10.110;2024-02-28T14:23:56;12.00;75.60
79439;DHT22;68889;48.232;10.110;2024-02-28T14:26:23;11.80;76.50
79439;DHT22;68889;48.232;10.110;2024-02-28T14:28:51;11.70;76.80
79439;DHT22;68889;48.232;10.110;2024-02-28T14:31:23;11.70;78.00
79439;DHT22;68889;48.232;10.110;2024-02-28T14:33:55;11.60;78.00
79439;DHT22;68889;48.232;10.110;2024-02-28T14:36:28;11.60;78.20
79439;DHT22;68889;48.232;10.110;2024-02-28T14:39:10;11.70;78.60
79439;DHT22;68889;48.232;10.110;2024-02-28T14:41:44;11.80;77.90
79439;DHT22;68889;48.232;10.110;2024-02-28T14:44:11;11.90;78.20
79439;DHT22;68889;48.232;10.110;2024-02-28T14:46:40;11.80;77.70
79439;DHT22;68889;48.232;10.110;2024-02-28T14:49:07;11.70;77.80
79439;DHT22;68889;48.232;10.110;2024-02-28T14:51:38;11.60;77.70
79439;DHT22;68889;48.232;10.110;2024-02-28T14:54:19;11.40;77.90
79439;DHT22;68889;48.232;10.110;2024-02-28T14:56:54;11.30;79.40
79439;DHT22;68889;48.232;10.110;2024-02-28T14:59:19;11.30;79.20
79439;DHT22;68889;48.232;10.110;2024-02-28T15:01:55;11.10;79.20
79439;DHT22;68889;48.232;10.110;2024-02-28T15:04:21;11.20;80.10
79439;DHT22;68889;48.232;10.110;2024-02-28T15:06:51;11.00;79.40
79439;DHT22;68889;48.232;10.110;2024-02-28T15:09:18;10.90;80.30
79439;DHT22;68889;48.232;10.110;2024-02-28T15:11:50;10.80;80.90
79439;DHT22;68889;48.232;10.110;2024-02-28T15:14:16;10.70;81.60
79439;DHT22;68889;48.232;10.110;2024-02-28T15:16:42;10.60;81.40
79439;DHT22;68889;48.232;10.110;2024-02-28T15:19:09;10.70;80.80
79439;DHT22;68889;48.232;10.110;2024-02-28T15:21:47;10.60;81.20
79439;DHT22;68889;48.232;10.110;2024-02-28T15:24:31;10.60;81.50
79439;DHT22;68889;48.232;10.110;2024-02-28T15:26:57;10.60;81.00
79439;DHT22;68889;48.232;10.110;2024-02-28T15:29:32;10.50;80.90
79439;DHT22;68889;48.232;10.110;2024-02-28T15:32:07;10.50;82.00
79439;DHT22;68889;48.232;10.110;2024-02-28T15:35:06;10.60;82.00
79439;DHT22;68889;48.232;10.110;2024-02-28T15:37:54;10.50;81.70
79439;DHT22;68889;48.232;10.110;2024-02-28T15:40:45;10.40;81.60
79439;DHT22;68889;48.232;10.110;2024-02-28T15:43:22;10.20;82.50
79439;DHT22;68889;48.232;10.110;2024-02-28T15:45:48;10.10;82.60